createdAt,value
2019-02-10T00:00:05.519Z,54.89
2019-02-10T00:02:31.687Z,54.71
2019-02-10T00:04:57.841Z,55.49
2019-02-10T00:07:26.600Z,56.64
2019-02-10T00:09:52.759Z,56.59
2019-02-10T00:12:19.464Z,56.35
2019-02-10T00:14:45.795Z,55.83
2019-02-10T00:17:11.965Z,55.38
2019-02-10T00:19:38.119Z,54.96
2019-02-10T00:22:04.411Z,54.28
2019-02-10T00:24:31.030Z,53.55
2019-02-10T00:26:57.196Z,53.70
2019-02-10T00:29:23.489Z,53.92
2019-02-10T00:31:49.761Z,54.07
2019-02-10T00:34:16.019Z,54.00
2019-02-10T00:36:42.341Z,54.20
2019-02-10T00:39:09.000Z,54.39
2019-02-10T00:41:35.261Z,54.19
2019-02-10T00:44:01.583Z,54.59
2019-02-10T00:46:27.826Z,53.89
2019-02-10T00:48:54.000Z,53.59
2019-02-10T00:51:20.307Z,54.50
2019-02-10T00:53:46.458Z,55.75
2019-02-10T00:56:12.713Z,54.22
2019-02-10T00:58:39.028Z,53.55
2019-02-10T01:01:05.320Z,52.89
2019-02-10T01:03:31.485Z,53.05
2019-02-10T01:05:57.788Z,52.40
2019-02-10T01:08:24.270Z,52.46
2019-02-10T01:10:50.430Z,53.01
2019-02-10T01:13:16.742Z,52.58
2019-02-10T01:15:43.017Z,52.78
2019-02-10T01:18:09.183Z,51.75
2019-02-10T01:20:35.485Z,51.93
2019-02-10T01:23:01.971Z,51.88
2019-02-10T01:25:28.267Z,52.78
2019-02-10T01:27:54.571Z,52.76
2019-02-10T01:30:20.852Z,51.78
2019-02-10T01:32:47.118Z,52.52
2019-02-10T01:35:13.406Z,51.62
2019-02-10T01:37:41.945Z,54.10
2019-02-10T01:40:09.607Z,52.99
2019-02-10T01:42:35.829Z,51.42
2019-02-10T01:45:02.111Z,51.06
2019-02-10T01:47:28.363Z,52.49
2019-02-10T01:49:55.163Z,55.64
2019-02-10T01:52:21.334Z,56.98
2019-02-10T01:54:47.499Z,56.02
2019-02-10T01:57:13.782Z,55.35
2019-02-10T01:59:40.038Z,54.92
2019-02-10T02:02:06.311Z,54.32
2019-02-10T02:04:32.507Z,54.64
2019-02-10T02:06:58.769Z,54.04
2019-02-10T02:09:24.941Z,54.38
2019-02-10T02:11:51.133Z,54.30
2019-02-10T02:14:17.390Z,54.32
2019-02-10T02:16:43.554Z,54.88
2019-02-10T02:19:09.861Z,54.50
2019-02-10T02:21:36.021Z,54.36
2019-02-10T02:24:02.296Z,54.35
2019-02-10T02:26:28.673Z,54.65
2019-02-10T02:28:54.826Z,55.92
2019-02-10T02:31:21.083Z,55.53
2019-02-10T02:33:47.393Z,55.51
2019-02-10T02:36:13.566Z,55.00
2019-02-10T02:38:39.730Z,54.94
2019-02-10T02:41:05.923Z,54.56
2019-02-10T02:43:32.103Z,55.07
2019-02-10T02:45:58.266Z,55.44
2019-02-10T02:48:24.564Z,55.54
2019-02-10T02:50:50.728Z,55.34
2019-02-10T02:53:16.995Z,55.46
2019-02-10T02:55:43.210Z,55.39
2019-02-10T02:58:09.372Z,55.22
2019-02-10T03:00:35.530Z,55.30
2019-02-10T03:03:01.742Z,55.37
2019-02-10T03:05:27.892Z,55.01
2019-02-10T03:07:54.067Z,55.10
2019-02-10T03:10:20.360Z,55.92
2019-02-10T03:12:46.520Z,56.28
2019-02-10T03:15:12.692Z,55.96
2019-02-10T03:17:38.889Z,55.34
2019-02-10T03:20:06.588Z,55.34
2019-02-10T03:22:32.720Z,55.92
2019-02-10T03:24:58.983Z,55.62
2019-02-10T03:27:25.280Z,55.42
2019-02-10T03:29:51.447Z,55.15
2019-02-10T03:32:17.747Z,55.64
2019-02-10T03:34:43.900Z,55.24
2019-02-10T03:37:10.086Z,55.22
2019-02-10T03:39:36.378Z,54.77
2019-02-10T03:42:02.625Z,56.19
2019-02-10T03:44:28.988Z,55.70
2019-02-10T03:46:55.184Z,55.74
2019-02-10T03:49:21.349Z,56.30
2019-02-10T03:51:47.513Z,56.79
2019-02-10T03:54:13.703Z,56.69
2019-02-10T03:56:39.964Z,56.96
2019-02-10T03:59:06.129Z,57.04
2019-02-10T04:01:32.328Z,55.99
2019-02-10T04:03:58.584Z,56.00
2019-02-10T04:06:24.748Z,55.99
2019-02-10T04:08:51.047Z,55.43
2019-02-10T04:11:17.212Z,55.30
2019-02-10T04:13:43.379Z,55.71
2019-02-10T04:16:09.677Z,55.57
2019-02-10T04:18:35.853Z,55.49
2019-02-10T04:21:02.115Z,55.74
2019-02-10T04:23:28.412Z,55.30
2019-02-10T04:25:54.685Z,54.77
2019-02-10T04:28:20.993Z,55.30
2019-02-10T04:30:47.301Z,54.96
2019-02-10T04:33:13.560Z,54.32
2019-02-10T04:35:39.719Z,54.93
2019-02-10T04:38:06.039Z,54.80
2019-02-10T04:40:32.214Z,54.54
2019-02-10T04:42:58.364Z,55.39
2019-02-10T04:45:24.666Z,55.25
2019-02-10T04:47:50.837Z,55.43
2019-02-10T04:50:17.094Z,54.62
2019-02-10T04:52:43.283Z,53.45
2019-02-10T04:55:09.560Z,53.07
2019-02-10T04:57:35.724Z,52.88
2019-02-10T05:00:02.414Z,53.36
2019-02-10T05:02:28.688Z,52.42
2019-02-10T05:04:54.852Z,52.13
2019-02-10T05:07:21.139Z,52.34
2019-02-10T05:09:47.686Z,52.50
2019-02-10T05:12:13.854Z,52.21
2019-02-10T05:14:40.046Z,52.25
2019-02-10T05:17:06.209Z,52.05
2019-02-10T05:19:32.480Z,52.06
2019-02-10T05:21:58.682Z,52.43
2019-02-10T05:24:24.944Z,52.42
2019-02-10T05:26:51.206Z,52.60
2019-02-10T05:29:17.451Z,52.62
2019-02-10T05:31:43.622Z,52.54
2019-02-10T05:34:09.782Z,52.50
2019-02-10T05:36:35.965Z,52.60
2019-02-10T05:39:03.635Z,52.46
2019-02-10T05:41:29.793Z,53.16
2019-02-10T05:43:56.093Z,54.06
2019-02-10T05:46:22.272Z,53.67
2019-02-10T05:48:48.552Z,54.04
2019-02-10T05:51:14.850Z,53.94
2019-02-10T05:53:41.010Z,52.89
2019-02-10T05:56:07.278Z,51.13
2019-02-10T05:58:33.472Z,50.61
2019-02-10T06:01:37.170Z,48.31
2019-02-10T06:04:03.403Z,47.58
2019-02-10T06:06:29.549Z,45.73
2019-02-10T06:08:55.816Z,44.70
2019-02-10T06:11:22.118Z,45.03
2019-02-10T06:13:48.431Z,44.65
2019-02-10T06:16:15.049Z,43.59
2019-02-10T06:18:41.344Z,43.49
2019-02-10T06:21:07.616Z,43.38
2019-02-10T06:23:33.776Z,43.63
2019-02-10T06:25:59.969Z,43.79
2019-02-10T06:28:26.127Z,44.52
2019-02-10T06:30:53.147Z,44.87
2019-02-10T06:33:19.343Z,44.81
2019-02-10T06:35:45.502Z,43.94
2019-02-10T06:38:11.813Z,42.95
2019-02-10T06:40:38.101Z,41.48
2019-02-10T06:43:04.362Z,41.09
2019-02-10T06:45:30.522Z,40.03
2019-02-10T06:47:57.824Z,38.83
2019-02-10T06:50:24.293Z,38.41
2019-02-10T06:52:50.450Z,37.67
2019-02-10T06:55:16.643Z,37.66
2019-02-10T06:57:42.828Z,39.17
2019-02-10T07:00:23.631Z,39.16
2019-02-10T07:03:28.758Z,40.05
2019-02-10T07:05:54.949Z,40.40
2019-02-10T07:08:21.217Z,39.17
2019-02-10T07:10:47.372Z,39.26
2019-02-10T07:13:17.171Z,39.50
2019-02-10T07:16:20.685Z,39.43
2019-02-10T07:19:24.090Z,37.72
2019-02-10T07:21:50.356Z,37.74
2019-02-10T07:24:31.470Z,39.93
2019-02-10T07:27:16.279Z,40.11
2019-02-10T07:30:05.878Z,40.62
2019-02-10T07:32:35.692Z,40.28
2019-02-10T07:35:11.583Z,40.45
2019-02-10T07:37:50.233Z,39.98
2019-02-10T07:40:45.901Z,40.70
2019-02-10T07:43:43.385Z,40.51
2019-02-10T07:46:27.768Z,39.68
2019-02-10T07:49:00.521Z,39.48
2019-02-10T07:51:33.443Z,39.27
2019-02-10T07:54:29.000Z,39.45
2019-02-10T07:57:18.434Z,39.70
2019-02-10T07:59:54.164Z,40.52
2019-02-10T08:02:53.224Z,40.85
2019-02-10T08:05:28.731Z,40.88
2019-02-10T08:07:58.528Z,39.38
2019-02-10T08:10:49.698Z,38.86
2019-02-10T08:13:28.524Z,38.95
2019-02-10T08:16:20.696Z,38.02
2019-02-10T08:18:59.273Z,37.45
2019-02-10T08:21:41.079Z,39.25
2019-02-10T08:24:31.002Z,39.13
2019-02-10T08:27:00.768Z,38.24
2019-02-10T08:29:48.864Z,37.59
2019-02-10T08:32:27.141Z,38.87
2019-02-10T08:35:24.249Z,38.57
2019-02-10T08:38:10.785Z,36.62
2019-02-10T08:40:57.361Z,38.57
2019-02-10T08:43:27.134Z,39.51
2019-02-10T08:46:09.340Z,38.85
2019-02-10T08:48:47.535Z,37.69
2019-02-10T08:51:35.500Z,38.40
2019-02-10T08:54:01.666Z,42.85
2019-02-10T08:56:27.829Z,42.48
2019-02-10T08:58:54.012Z,42.90
2019-02-10T09:01:20.277Z,42.20
2019-02-10T09:03:46.440Z,41.81
2019-02-10T09:06:12.735Z,41.30
2019-02-10T09:08:38.911Z,40.94
2019-02-10T09:11:05.072Z,40.45
2019-02-10T09:13:31.374Z,39.40
2019-02-10T09:15:57.531Z,39.86
2019-02-10T09:18:24.098Z,39.36
2019-02-10T09:20:50.287Z,39.33
2019-02-10T09:23:16.447Z,37.74
2019-02-10T09:25:42.621Z,37.72
2019-02-10T09:28:08.812Z,37.22
2019-02-10T09:30:34.975Z,36.24
2019-02-10T09:33:01.136Z,35.21
2019-02-10T09:35:27.439Z,33.91
2019-02-10T09:37:53.630Z,32.99
2019-02-10T09:40:19.801Z,32.97
2019-02-10T09:42:46.097Z,32.47
2019-02-10T09:45:12.475Z,32.68
2019-02-10T09:47:38.855Z,31.79
2019-02-10T09:50:08.668Z,33.04
2019-02-10T09:52:34.946Z,32.51
2019-02-10T09:55:01.226Z,31.36
2019-02-10T09:57:27.437Z,30.55
2019-02-10T09:59:53.696Z,31.13
2019-02-10T10:02:19.853Z,31.21
2019-02-10T10:04:46.169Z,29.90
2019-02-10T10:07:12.452Z,29.14
2019-02-10T10:09:38.641Z,30.60
2019-02-10T10:12:04.853Z,29.69
2019-02-10T10:14:31.444Z,29.20
2019-02-10T10:16:57.727Z,28.44
2019-02-10T10:19:23.938Z,28.18
2019-02-10T10:21:50.220Z,27.90
2019-02-10T10:24:16.521Z,27.41
2019-02-10T10:26:42.728Z,29.26
2019-02-10T10:29:09.125Z,29.34
2019-02-10T10:31:35.281Z,28.90
2019-02-10T10:34:01.584Z,28.30
2019-02-10T10:36:27.901Z,27.87
2019-02-10T10:38:54.094Z,26.07
2019-02-10T10:41:20.413Z,26.91
2019-02-10T10:43:46.700Z,25.89
2019-02-10T10:46:12.951Z,26.04
2019-02-10T10:48:39.247Z,25.49
2019-02-10T10:51:05.405Z,24.33
2019-02-10T10:53:31.697Z,24.41
2019-02-10T10:55:58.002Z,24.85
2019-02-10T10:58:24.191Z,25.02
2019-02-10T11:00:50.353Z,24.65
2019-02-10T11:03:17.317Z,26.22
2019-02-10T11:05:43.856Z,26.25
2019-02-10T11:08:10.133Z,24.43
2019-02-10T11:10:36.463Z,23.99
2019-02-10T11:13:02.926Z,22.91
2019-02-10T11:15:29.097Z,24.55
2019-02-10T11:17:55.449Z,23.90
2019-02-10T11:20:21.681Z,24.50
2019-02-10T11:22:47.972Z,23.93
2019-02-10T11:25:14.289Z,25.79
2019-02-10T11:27:40.457Z,28.20
2019-02-10T11:30:11.864Z,27.56
2019-02-10T11:32:38.072Z,26.69
2019-02-10T11:35:05.759Z,26.57
2019-02-10T11:37:32.091Z,26.92
2019-02-10T11:39:58.391Z,25.32
2019-02-10T11:42:24.558Z,24.03
2019-02-10T11:44:54.922Z,24.75
2019-02-10T11:47:27.731Z,25.46
2019-02-10T11:49:53.900Z,24.40
2019-02-10T11:52:20.187Z,24.77
2019-02-10T11:54:46.500Z,25.30
2019-02-10T11:57:12.795Z,24.42
2019-02-10T11:59:39.084Z,23.82
2019-02-10T12:02:05.306Z,22.65
2019-02-10T12:04:31.603Z,22.03
2019-02-10T12:06:57.866Z,24.12
2019-02-10T12:09:24.060Z,24.73
2019-02-10T12:11:50.328Z,23.97
2019-02-10T12:14:16.518Z,25.46
2019-02-10T12:16:42.725Z,24.95
2019-02-10T12:19:09.135Z,24.37
2019-02-10T12:21:36.396Z,24.07
2019-02-10T12:24:02.690Z,25.94
2019-02-10T12:26:28.981Z,25.65
2019-02-10T12:28:55.260Z,25.42
2019-02-10T12:31:21.542Z,25.39
2019-02-10T12:33:47.707Z,24.38
2019-02-10T12:36:13.860Z,24.49
2019-02-10T12:38:40.185Z,25.81
2019-02-10T12:41:06.458Z,25.25
2019-02-10T12:43:36.934Z,26.07
2019-02-10T12:46:03.130Z,25.90
2019-02-10T12:48:29.401Z,24.39
2019-02-10T12:50:55.657Z,24.05
2019-02-10T12:53:21.976Z,24.51
2019-02-10T12:55:48.142Z,24.39
2019-02-10T12:58:14.418Z,24.59
2019-02-10T13:00:43.279Z,24.36
2019-02-10T13:03:09.454Z,23.68
2019-02-10T13:05:35.752Z,24.55
2019-02-10T13:08:02.124Z,25.39
2019-02-10T13:10:28.451Z,25.75
2019-02-10T13:12:54.577Z,25.40
2019-02-10T13:15:20.773Z,26.23
2019-02-10T13:17:48.933Z,26.17
2019-02-10T13:20:15.094Z,26.71
2019-02-10T13:22:41.418Z,26.45
2019-02-10T13:25:09.572Z,25.90
2019-02-10T13:27:35.918Z,25.38
2019-02-10T13:30:04.121Z,25.41
2019-02-10T13:32:30.279Z,25.77
2019-02-10T13:34:56.621Z,26.04
2019-02-10T13:37:23.015Z,25.66
2019-02-10T13:39:49.289Z,27.08
2019-02-10T13:42:15.456Z,27.52
2019-02-10T13:44:41.642Z,28.43
2019-02-10T13:47:07.806Z,27.28
2019-02-10T13:49:33.969Z,26.45
2019-02-10T13:52:00.279Z,26.57
2019-02-10T13:54:26.526Z,28.03
2019-02-10T13:56:52.685Z,27.51
2019-02-10T13:59:18.903Z,27.73
2019-02-10T14:01:45.065Z,27.01
2019-02-10T14:04:11.233Z,27.37
2019-02-10T14:06:37.420Z,26.84
2019-02-10T14:09:06.408Z,27.28
2019-02-10T14:11:36.295Z,27.53
2019-02-10T14:14:02.616Z,27.97
2019-02-10T14:16:28.799Z,29.10
2019-02-10T14:18:54.973Z,29.67
2019-02-10T14:21:21.202Z,29.10
2019-02-10T14:23:47.369Z,29.41
2019-02-10T14:26:13.570Z,28.94
2019-02-10T14:28:39.800Z,28.99
2019-02-10T14:31:06.007Z,28.69
2019-02-10T14:33:38.644Z,28.69
2019-02-10T14:36:00.431Z,28.80
2019-02-10T14:38:26.609Z,28.80
2019-02-10T14:40:53.022Z,28.68
2019-02-10T14:43:19.345Z,28.66
2019-02-10T14:45:45.523Z,28.69
2019-02-10T14:48:11.808Z,29.47
2019-02-10T14:50:38.128Z,29.14
2019-02-10T14:53:04.305Z,28.94
2019-02-10T14:55:30.489Z,29.39
2019-02-10T14:57:56.706Z,29.52
2019-02-10T15:00:23.018Z,29.94
2019-02-10T15:02:49.216Z,30.04
2019-02-10T15:05:15.544Z,30.12
2019-02-10T15:07:41.729Z,30.13
2019-02-10T15:10:11.970Z,30.46
2019-02-10T15:12:38.369Z,30.41
2019-02-10T15:15:07.568Z,30.66
2019-02-10T15:17:33.966Z,32.58
2019-02-10T15:20:00.598Z,33.17
2019-02-10T15:22:26.996Z,33.52
2019-02-10T15:24:53.287Z,33.50
2019-02-10T15:27:20.051Z,34.34
2019-02-10T15:29:46.384Z,34.61
2019-02-10T15:32:16.979Z,36.02
2019-02-10T15:34:43.574Z,36.24
2019-02-10T15:37:09.772Z,36.15
2019-02-10T15:39:35.941Z,36.68
2019-02-10T15:42:09.282Z,36.85
2019-02-10T15:44:30.435Z,36.76
2019-02-10T15:46:56.718Z,37.36
2019-02-10T15:49:23.053Z,38.66
2019-02-10T15:51:49.238Z,38.24
2019-02-10T15:54:15.420Z,37.55
2019-02-10T15:56:41.654Z,38.30
2019-02-10T15:59:07.962Z,38.48
2019-02-10T16:01:34.243Z,39.51
2019-02-10T16:04:00.453Z,40.71
2019-02-10T16:06:26.745Z,39.99
2019-02-10T16:08:53.033Z,40.08
2019-02-10T16:11:19.269Z,40.92
2019-02-10T16:13:45.570Z,40.86
2019-02-10T16:16:11.766Z,40.97
2019-02-10T16:18:38.133Z,40.91
2019-02-10T16:21:04.420Z,41.34
2019-02-10T16:23:30.723Z,41.69
2019-02-10T16:25:56.938Z,42.17
2019-02-10T16:28:23.107Z,41.41
2019-02-10T16:30:49.385Z,40.93
2019-02-10T16:33:15.625Z,40.64
2019-02-10T16:35:41.911Z,41.49
2019-02-10T16:38:08.090Z,41.48
2019-02-10T16:40:34.310Z,41.51
2019-02-10T16:43:00.649Z,41.36
2019-02-10T16:45:26.833Z,41.56
2019-02-10T16:47:53.172Z,41.49
2019-02-10T16:50:19.443Z,43.12
2019-02-10T16:52:45.741Z,41.92
2019-02-10T16:55:17.393Z,41.95
2019-02-10T16:57:43.556Z,41.82
2019-02-10T17:00:11.958Z,42.42
2019-02-10T17:02:47.814Z,42.03
2019-02-10T17:05:14.191Z,42.94
2019-02-10T17:07:40.509Z,42.35
2019-02-10T17:10:09.546Z,42.29
2019-02-10T17:12:35.957Z,42.78
2019-02-10T17:15:03.930Z,42.67
2019-02-10T17:17:30.265Z,42.39
2019-02-10T17:19:56.554Z,42.58
2019-02-10T17:22:23.973Z,42.48
2019-02-10T17:24:50.268Z,43.74
2019-02-10T17:27:16.442Z,43.64
2019-02-10T17:29:42.730Z,42.21
2019-02-10T17:32:08.952Z,42.12
2019-02-10T17:34:35.146Z,42.20
2019-02-10T17:37:01.425Z,42.20
2019-02-10T17:39:27.645Z,42.32
2019-02-10T17:41:53.825Z,42.19
2019-02-10T17:44:20.101Z,42.13
2019-02-10T17:46:46.328Z,42.71
2019-02-10T17:49:12.621Z,41.95
2019-02-10T17:51:38.898Z,41.64
2019-02-10T17:54:05.144Z,41.57
2019-02-10T17:56:31.313Z,41.51
2019-02-10T17:58:57.604Z,40.81
2019-02-10T18:01:23.916Z,40.47
2019-02-10T18:03:50.280Z,40.88
2019-02-10T18:06:16.603Z,40.48
2019-02-10T18:08:42.834Z,40.37
2019-02-10T18:11:09.016Z,39.97
2019-02-10T18:13:35.297Z,39.60
2019-02-10T18:16:03.442Z,39.95
2019-02-10T18:18:31.533Z,40.81
2019-02-10T18:21:18.434Z,38.94
2019-02-10T18:24:11.969Z,38.79
2019-02-10T18:26:40.149Z,39.28
2019-02-10T18:29:10.921Z,38.59
2019-02-10T18:31:44.910Z,38.48
2019-02-10T18:34:21.644Z,38.24
2019-02-10T18:36:49.773Z,38.80
2019-02-10T18:39:20.820Z,39.55
2019-02-10T18:41:48.899Z,39.17
2019-02-10T18:44:17.030Z,39.43
2019-02-10T18:46:56.960Z,38.84
2019-02-10T18:49:28.073Z,38.87
2019-02-10T18:52:01.746Z,39.10
2019-02-10T18:54:38.698Z,38.41
2019-02-10T18:57:06.781Z,38.32
2019-02-10T18:59:34.883Z,37.85
2019-02-10T19:02:03.028Z,37.39
2019-02-10T19:04:31.117Z,37.63
2019-02-10T19:07:01.746Z,37.76
2019-02-10T20:29:23.360Z,37.91
2019-02-10T20:31:51.530Z,38.36
2019-02-10T20:34:28.432Z,37.98
2019-02-10T20:36:56.564Z,37.86
2019-02-10T20:39:30.417Z,37.82
2019-02-10T20:42:12.443Z,37.58
2019-02-10T20:44:44.137Z,37.55
2019-02-10T20:47:24.088Z,38.04
2019-02-10T20:49:54.941Z,37.82
2019-02-10T20:52:32.789Z,38.33
2019-02-10T20:55:09.739Z,38.88
2019-02-10T20:57:40.636Z,39.58
2019-02-10T21:00:27.319Z,39.45
2019-02-10T21:03:00.991Z,39.25
2019-02-10T21:05:47.295Z,39.11
2019-02-10T21:08:31.846Z,40.20
2019-02-10T21:11:02.475Z,39.77
2019-02-10T21:13:33.127Z,40.65
2019-02-10T21:16:01.272Z,40.62
2019-02-10T21:18:45.921Z,41.48
2019-02-10T21:21:30.404Z,41.27
2019-02-10T21:23:58.494Z,41.55
2019-02-10T21:26:32.376Z,41.15
2019-02-10T21:29:00.460Z,41.77
2019-02-10T21:31:34.167Z,41.89
2019-02-10T21:34:02.252Z,41.46
2019-02-10T21:36:35.989Z,41.78
2019-02-10T21:39:21.665Z,41.86
2019-02-10T21:42:04.664Z,42.23
2019-02-10T21:44:32.753Z,43.29
2019-02-10T21:47:17.397Z,41.62
2019-02-10T21:49:43.680Z,41.47
2019-02-10T21:52:09.981Z,41.91
2019-02-10T21:54:36.201Z,41.27
2019-02-10T21:57:02.376Z,41.21
2019-02-10T21:59:28.672Z,41.43
2019-02-10T22:01:54.883Z,41.48
2019-02-10T22:04:21.049Z,41.47
2019-02-10T22:06:47.339Z,41.72
2019-02-10T22:09:13.554Z,41.80
2019-02-10T22:11:39.735Z,41.48
2019-02-10T22:14:06.793Z,42.13
2019-02-10T22:16:33.019Z,42.80
2019-02-10T22:18:59.189Z,43.79
2019-02-10T22:21:25.401Z,42.93
2019-02-10T22:23:51.618Z,43.12
2019-02-10T22:26:17.802Z,42.86
2019-02-10T22:28:43.977Z,43.13
2019-02-10T22:31:18.450Z,43.23
2019-02-10T22:33:38.363Z,43.18
2019-02-10T22:36:04.543Z,43.97
2019-02-10T22:38:30.856Z,43.94
2019-02-10T22:40:57.035Z,44.04
2019-02-10T22:43:23.215Z,43.76
2019-02-10T22:45:49.443Z,44.68
2019-02-10T22:48:15.716Z,45.29
2019-02-10T22:50:41.894Z,44.83
2019-02-10T22:53:08.111Z,45.36
2019-02-10T22:55:34.291Z,44.90
2019-02-10T22:58:00.477Z,44.93
2019-02-10T23:00:49.226Z,45.34
2019-02-10T23:03:15.413Z,44.70
2019-02-10T23:05:42.288Z,44.26
2019-02-10T23:08:08.635Z,44.58
2019-02-10T23:10:34.813Z,45.33
2019-02-10T23:13:00.995Z,45.33
2019-02-10T23:15:27.220Z,44.72
2019-02-10T23:17:53.409Z,45.68
2019-02-10T23:20:19.696Z,45.75
2019-02-10T23:22:45.926Z,46.46
2019-02-10T23:25:12.103Z,45.72
2019-02-10T23:27:38.288Z,44.97
2019-02-10T23:30:05.606Z,44.42
2019-02-10T23:32:31.790Z,44.60
2019-02-10T23:34:58.070Z,44.54
2019-02-10T23:37:24.303Z,45.39
2019-02-10T23:39:50.496Z,45.88
2019-02-10T23:42:16.770Z,46.07
2019-02-10T23:44:43.010Z,45.11
2019-02-10T23:47:09.199Z,45.19
2019-02-10T23:49:35.383Z,44.66
2019-02-10T23:52:01.696Z,44.95
2019-02-10T23:54:27.892Z,44.72
2019-02-10T23:56:54.061Z,44.93
2019-02-10T23:59:20.395Z,45.02
